createdAt,value
2023-05-19T00:00:33.326Z,74.00
2023-05-19T00:03:21.750Z,74.23
2023-05-19T00:05:50.632Z,74.06
2023-05-19T00:08:18.376Z,74.03
2023-05-19T00:10:46.630Z,74.20
2023-05-19T00:13:14.681Z,74.31
2023-05-19T00:15:42.996Z,74.40
2023-05-19T00:18:14.277Z,74.28
2023-05-19T00:20:42.551Z,74.10
2023-05-19T00:23:10.992Z,74.20
2023-05-19T00:25:38.843Z,74.06
2023-05-19T00:28:06.526Z,74.35
2023-05-19T00:30:34.350Z,74.44
2023-05-19T00:33:02.601Z,74.55
2023-05-19T00:35:30.461Z,74.39
2023-05-19T00:37:58.321Z,74.30
2023-05-19T00:40:26.191Z,74.19
2023-05-19T00:42:53.924Z,74.69
2023-05-19T00:45:21.794Z,74.94
2023-05-19T00:47:49.670Z,74.68
2023-05-19T00:50:17.409Z,74.95
2023-05-19T00:52:45.044Z,75.08
2023-05-19T00:55:14.365Z,74.90
2023-05-19T00:57:42.618Z,74.81
2023-05-19T01:00:11.417Z,74.85
2023-05-19T01:02:40.213Z,74.90
2023-05-19T01:05:08.650Z,74.95
2023-05-19T01:07:36.955Z,75.12
2023-05-19T01:10:05.239Z,74.58
2023-05-19T01:12:32.909Z,74.79
2023-05-19T01:15:01.272Z,74.88
2023-05-19T01:17:51.289Z,75.06
2023-05-19T01:20:36.326Z,74.95
2023-05-19T01:23:17.997Z,74.97
2023-05-19T01:26:38.522Z,75.37
2023-05-19T01:29:24.682Z,75.30
2023-05-19T01:31:52.374Z,75.62
2023-05-19T01:34:20.461Z,75.53
2023-05-19T01:36:49.337Z,75.62
2023-05-19T01:39:17.041Z,75.69
2023-05-19T01:41:44.682Z,75.70
2023-05-19T01:44:12.353Z,75.99
2023-05-19T01:46:40.049Z,75.84
2023-05-19T01:49:07.907Z,75.87
2023-05-19T01:51:35.841Z,75.82
2023-05-19T01:54:03.611Z,75.98
2023-05-19T01:56:41.475Z,76.05
2023-05-19T01:59:16.987Z,76.22
2023-05-19T02:01:54.070Z,76.43
2023-05-19T02:04:45.241Z,76.16
2023-05-19T02:07:22.445Z,76.39
2023-05-19T02:09:59.414Z,76.48
2023-05-19T02:12:35.788Z,76.53
2023-05-19T02:15:10.822Z,76.72
2023-05-19T02:17:41.649Z,76.60
2023-05-19T02:20:10.337Z,76.79
2023-05-19T02:22:38.135Z,76.87
2023-05-19T02:25:06.271Z,76.42
2023-05-19T02:27:34.989Z,76.43
2023-05-19T02:30:06.443Z,76.58
2023-05-19T02:32:34.524Z,76.59
2023-05-19T02:35:02.850Z,76.46
2023-05-19T02:37:31.243Z,76.57
2023-05-19T02:39:59.302Z,76.79
2023-05-19T02:42:26.961Z,76.63
2023-05-19T02:44:55.446Z,76.76
2023-05-19T02:47:23.373Z,76.59
2023-05-19T02:49:51.061Z,76.37
2023-05-19T02:52:18.761Z,76.67
2023-05-19T02:54:46.747Z,76.79
2023-05-19T02:57:14.398Z,76.80
2023-05-19T02:59:42.965Z,76.96
2023-05-19T03:02:11.596Z,76.64
2023-05-19T03:04:42.802Z,76.79
2023-05-19T03:07:10.665Z,76.94
2023-05-19T03:09:38.423Z,76.64
2023-05-19T03:12:07.700Z,76.55
2023-05-19T03:14:38.575Z,76.55
2023-05-19T03:17:10.330Z,76.80
2023-05-19T03:19:38.218Z,76.46
2023-05-19T03:22:06.792Z,76.70
2023-05-19T03:24:34.796Z,76.83
2023-05-19T03:27:02.785Z,76.75
2023-05-19T03:29:31.015Z,76.63
2023-05-19T03:31:59.905Z,76.70
2023-05-19T03:34:27.666Z,76.68
2023-05-19T03:36:55.304Z,76.76
2023-05-19T03:39:23.638Z,76.60
2023-05-19T03:41:51.435Z,76.83
2023-05-19T03:44:19.201Z,76.91
2023-05-19T03:46:47.064Z,76.56
2023-05-19T03:49:15.142Z,76.77
2023-05-19T03:51:43.234Z,77.03
2023-05-19T03:54:11.259Z,76.94
2023-05-19T03:56:39.377Z,76.84
2023-05-19T03:59:07.331Z,76.58
2023-05-19T04:01:36.500Z,76.83
2023-05-19T04:04:04.438Z,77.18
2023-05-19T04:06:32.169Z,77.09
2023-05-19T04:09:02.391Z,77.07
2023-05-19T04:11:30.050Z,76.86
2023-05-19T04:13:57.706Z,76.96
2023-05-19T04:16:25.985Z,76.72
2023-05-19T04:18:53.839Z,76.74
2023-05-19T04:21:22.432Z,76.86
2023-05-19T04:23:50.445Z,76.90
2023-05-19T04:26:19.292Z,76.82
2023-05-19T04:28:48.338Z,76.95
2023-05-19T04:31:16.182Z,76.93
2023-05-19T04:33:43.913Z,77.10
2023-05-19T04:36:13.768Z,76.94
2023-05-19T04:38:41.969Z,77.02
2023-05-19T04:41:11.070Z,76.60
2023-05-19T04:43:42.076Z,76.79
2023-05-19T04:46:13.367Z,76.62
2023-05-19T04:48:41.495Z,76.71
2023-05-19T04:51:09.451Z,76.48
2023-05-19T04:53:37.367Z,76.35
2023-05-19T04:56:05.432Z,76.50
2023-05-19T04:58:33.303Z,76.09
2023-05-19T05:01:01.432Z,76.03
2023-05-19T05:03:30.952Z,75.94
2023-05-19T05:05:58.747Z,76.12
2023-05-19T05:08:27.390Z,76.25
2023-05-19T05:10:55.738Z,76.41
2023-05-19T05:13:24.074Z,76.14
2023-05-19T05:15:52.360Z,76.51
2023-05-19T05:18:20.788Z,76.26
2023-05-19T05:20:48.844Z,75.93
2023-05-19T05:23:16.951Z,75.97
2023-05-19T05:25:45.312Z,76.15
2023-05-19T05:28:13.187Z,75.76
2023-05-19T05:30:41.667Z,75.93
2023-05-19T05:33:09.580Z,75.47
2023-05-19T05:35:37.496Z,75.74
2023-05-19T05:38:05.533Z,75.54
2023-05-19T05:40:33.328Z,75.43
2023-05-19T05:43:00.975Z,75.25
2023-05-19T05:45:28.710Z,75.39
2023-05-19T05:47:56.823Z,75.66
2023-05-19T05:50:25.416Z,75.09
2023-05-19T05:52:53.340Z,75.00
2023-05-19T05:55:21.697Z,74.95
2023-05-19T05:57:50.638Z,74.89
2023-05-19T06:00:19.422Z,74.52
2023-05-19T06:02:47.542Z,74.95
2023-05-19T06:05:15.393Z,74.66
2023-05-19T06:07:43.512Z,74.79
2023-05-19T06:10:11.438Z,74.87
2023-05-19T06:12:40.795Z,74.48
2023-05-19T06:15:10.217Z,74.37
2023-05-19T06:17:37.949Z,74.27
2023-05-19T06:20:06.664Z,73.98
2023-05-19T06:22:34.584Z,74.15
2023-05-19T06:25:02.227Z,74.01
2023-05-19T06:27:30.828Z,73.60
2023-05-19T06:30:00.191Z,73.88
2023-05-19T06:32:29.726Z,73.95
2023-05-19T06:34:57.527Z,73.85
2023-05-19T06:37:25.740Z,73.87
2023-05-19T06:39:53.708Z,73.83
2023-05-19T06:42:25.323Z,73.40
2023-05-19T06:44:53.444Z,73.25
2023-05-19T06:47:21.209Z,72.99
2023-05-19T06:49:55.487Z,72.56
2023-05-19T06:52:24.404Z,72.71
2023-05-19T06:54:52.428Z,72.49
2023-05-19T06:57:20.051Z,72.06
2023-05-19T06:59:47.917Z,71.90
2023-05-19T07:02:15.677Z,71.59
2023-05-19T07:04:43.646Z,71.50
2023-05-19T07:07:11.557Z,71.60
2023-05-19T07:09:39.475Z,71.42
2023-05-19T07:12:07.407Z,71.29
2023-05-19T07:14:36.501Z,70.94
2023-05-19T07:17:04.712Z,70.78
2023-05-19T07:19:32.399Z,70.51
2023-05-19T07:22:00.780Z,70.43
2023-05-19T07:24:28.732Z,70.34
2023-05-19T07:26:56.549Z,70.25
2023-05-19T07:29:24.472Z,70.13
2023-05-19T07:31:54.333Z,70.04
2023-05-19T07:34:22.117Z,69.77
2023-05-19T07:36:50.301Z,69.64
2023-05-19T07:39:18.352Z,69.33
2023-05-19T07:41:52.641Z,69.09
2023-05-19T07:44:20.511Z,68.85
2023-05-19T07:46:48.182Z,68.37
2023-05-19T07:49:15.925Z,68.23
2023-05-19T07:51:43.900Z,68.40
2023-05-19T07:54:11.534Z,68.51
2023-05-19T07:56:39.350Z,68.41
2023-05-19T07:59:08.085Z,67.94
2023-05-19T08:01:35.939Z,68.09
2023-05-19T08:04:03.821Z,68.39
2023-05-19T08:06:31.898Z,68.31
2023-05-19T08:08:59.688Z,68.20
2023-05-19T08:11:27.385Z,68.39
2023-05-19T08:13:55.246Z,68.12
2023-05-19T08:16:23.122Z,67.98
2023-05-19T08:18:51.126Z,67.70
2023-05-19T08:21:19.367Z,67.74
2023-05-19T08:23:47.146Z,67.81
2023-05-19T08:26:14.869Z,67.73
2023-05-19T08:28:44.335Z,67.84
2023-05-19T08:31:12.371Z,67.85
2023-05-19T08:33:40.182Z,67.42
2023-05-19T08:36:08.129Z,67.62
2023-05-19T08:38:35.773Z,67.60
2023-05-19T08:41:03.634Z,67.53
2023-05-19T08:43:31.604Z,67.26
2023-05-19T08:45:59.688Z,67.19
2023-05-19T08:48:29.548Z,67.28
2023-05-19T08:51:06.664Z,67.38
2023-05-19T08:53:37.047Z,67.40
2023-05-19T08:56:11.118Z,67.09
2023-05-19T08:58:39.816Z,67.08
2023-05-19T09:01:08.047Z,66.99
2023-05-19T09:03:39.382Z,66.64
2023-05-19T09:06:08.714Z,66.38
2023-05-19T09:08:37.330Z,66.53
2023-05-19T09:11:05.026Z,66.58
2023-05-19T09:13:32.692Z,66.69
2023-05-19T09:16:00.829Z,66.52
2023-05-19T09:18:28.534Z,66.53
2023-05-19T09:20:59.748Z,66.32
2023-05-19T09:23:29.707Z,66.64
2023-05-19T09:25:57.534Z,66.47
2023-05-19T09:28:29.614Z,66.26
2023-05-19T09:31:01.215Z,65.97
2023-05-19T09:33:30.060Z,66.13
2023-05-19T09:35:57.969Z,66.10
2023-05-19T09:38:26.959Z,65.97
2023-05-19T09:40:58.377Z,66.11
2023-05-19T09:43:34.319Z,66.46
2023-05-19T09:46:10.662Z,66.30
2023-05-19T09:48:39.920Z,66.00
2023-05-19T09:51:10.247Z,66.06
2023-05-19T09:53:39.151Z,65.91
2023-05-19T09:56:07.354Z,65.40
2023-05-19T09:58:35.643Z,65.37
2023-05-19T10:01:04.175Z,65.02
2023-05-19T10:03:35.228Z,64.86
2023-05-19T10:06:04.355Z,64.94
2023-05-19T10:08:33.547Z,65.11
2023-05-19T10:11:01.283Z,65.02
2023-05-19T10:13:29.505Z,65.17
2023-05-19T10:15:59.303Z,65.15
2023-05-19T10:18:29.697Z,65.34
2023-05-19T10:20:58.294Z,65.52
2023-05-19T10:23:26.500Z,65.13
2023-05-19T10:25:56.434Z,65.10
2023-05-19T10:28:26.674Z,65.30
2023-05-19T10:30:56.652Z,64.85
2023-05-19T10:33:43.262Z,64.79
2023-05-19T10:36:24.428Z,64.93
2023-05-19T10:39:06.390Z,65.18
2023-05-19T10:42:07.451Z,64.95
2023-05-19T10:44:46.421Z,65.24
2023-05-19T10:47:14.293Z,65.07
2023-05-19T10:49:42.297Z,64.58
2023-05-19T10:52:25.982Z,64.28
2023-05-19T10:54:54.911Z,64.44
2023-05-19T10:57:31.952Z,64.00
2023-05-19T11:00:08.650Z,64.09
2023-05-19T11:02:41.294Z,63.76
2023-05-19T11:05:18.208Z,63.72
2023-05-19T11:07:56.167Z,63.29
2023-05-19T11:10:24.376Z,63.52
2023-05-19T11:12:52.279Z,63.46
2023-05-19T11:15:20.511Z,63.43
2023-05-19T11:17:48.831Z,63.70
2023-05-19T11:20:24.163Z,63.78
2023-05-19T11:23:08.829Z,63.82
2023-05-19T11:25:53.936Z,63.45
2023-05-19T11:28:26.760Z,63.23
2023-05-19T11:30:55.118Z,62.67
2023-05-19T11:33:27.278Z,62.59
2023-05-19T11:35:58.617Z,62.78
2023-05-19T11:38:28.524Z,62.88
2023-05-19T11:40:56.643Z,62.31
2023-05-19T11:43:25.227Z,62.37
2023-05-19T11:45:56.420Z,62.52
2023-05-19T11:48:24.828Z,62.20
2023-05-19T11:50:52.639Z,62.35
2023-05-19T11:53:21.092Z,62.62
2023-05-19T11:55:49.659Z,63.04
2023-05-19T11:58:17.753Z,63.02
2023-05-19T12:00:47.935Z,62.51
2023-05-19T12:03:17.536Z,62.79
2023-05-19T12:05:47.168Z,62.67
2023-05-19T12:08:17.598Z,62.16
2023-05-19T12:10:47.807Z,62.31
2023-05-19T12:13:15.756Z,61.95
2023-05-19T12:15:43.900Z,61.99
2023-05-19T12:18:11.693Z,61.81
2023-05-19T12:20:39.467Z,61.83
2023-05-19T12:23:07.724Z,61.77
2023-05-19T12:25:35.700Z,61.51
2023-05-19T12:28:04.559Z,61.49
2023-05-19T12:30:33.595Z,62.01
2023-05-19T12:33:02.656Z,61.74
2023-05-19T12:35:33.364Z,61.96
2023-05-19T12:38:05.711Z,61.78
2023-05-19T12:40:35.418Z,61.82
2023-05-19T12:43:04.446Z,61.66
2023-05-19T12:45:39.911Z,61.81
2023-05-19T12:48:16.244Z,61.81
2023-05-19T12:50:45.025Z,61.88
2023-05-19T12:53:13.827Z,62.05
2023-05-19T12:55:44.910Z,61.98
2023-05-19T12:58:12.691Z,61.62
2023-05-19T13:00:50.529Z,61.11
2023-05-19T13:03:22.311Z,61.25
2023-05-19T13:05:51.152Z,61.45
2023-05-19T13:08:24.066Z,61.33
2023-05-19T13:10:52.312Z,61.47
2023-05-19T13:13:19.974Z,61.74
2023-05-19T13:15:50.504Z,61.68
2023-05-19T13:18:18.657Z,61.60
2023-05-19T13:20:47.101Z,61.57
2023-05-19T13:23:15.624Z,62.15
2023-05-19T13:25:43.639Z,62.06
2023-05-19T13:28:11.311Z,62.05
2023-05-19T13:30:40.446Z,62.34
2023-05-19T13:33:08.748Z,62.36
2023-05-19T13:35:39.332Z,62.29
2023-05-19T13:38:09.160Z,62.06
2023-05-19T13:40:36.939Z,61.78
2023-05-19T13:43:04.697Z,61.89
2023-05-19T13:45:32.403Z,61.71
2023-05-19T13:48:00.231Z,61.21
2023-05-19T13:50:29.389Z,61.28
2023-05-19T13:52:57.195Z,61.48
2023-05-19T13:55:27.289Z,61.33
2023-05-19T13:57:55.035Z,61.40
2023-05-19T14:00:24.055Z,61.52
2023-05-19T14:02:51.961Z,61.75
2023-05-19T14:05:19.900Z,62.10
2023-05-19T14:07:47.575Z,62.22
2023-05-19T14:10:15.700Z,62.27
2023-05-19T14:13:08.047Z,62.35
2023-05-19T14:15:34.525Z,61.91
2023-05-19T14:18:02.795Z,62.28
2023-05-19T14:20:32.879Z,62.24
2023-05-19T14:23:00.763Z,62.23
2023-05-19T14:25:28.398Z,61.80
2023-05-19T14:27:56.622Z,62.37
2023-05-19T14:30:24.410Z,62.46
2023-05-19T14:32:52.122Z,62.33
2023-05-19T14:35:20.875Z,62.35
2023-05-19T14:37:48.518Z,62.64
2023-05-19T14:40:16.618Z,62.53
2023-05-19T14:42:44.310Z,62.30
2023-05-19T14:45:12.225Z,62.08
2023-05-19T14:47:40.567Z,61.78
2023-05-19T14:50:08.442Z,62.34
2023-05-19T14:52:36.056Z,62.14
2023-05-19T14:55:04.125Z,62.33
2023-05-19T14:57:32.271Z,62.27
2023-05-19T14:59:59.950Z,62.15
2023-05-19T15:02:29.546Z,62.19
2023-05-19T15:04:57.627Z,62.40
2023-05-19T15:07:25.470Z,62.67
2023-05-19T15:09:53.586Z,62.88
2023-05-19T15:12:21.609Z,63.12
2023-05-19T15:14:49.427Z,62.84
2023-05-19T15:17:17.177Z,62.63
2023-05-19T15:19:45.070Z,62.76
2023-05-19T15:22:12.734Z,63.09
2023-05-19T15:24:41.329Z,62.97
2023-05-19T15:27:09.268Z,63.15
2023-05-19T15:29:37.016Z,63.33
2023-05-19T15:32:05.032Z,63.36
2023-05-19T15:34:32.913Z,63.36
2023-05-19T15:37:00.710Z,63.18
2023-05-19T15:39:30.455Z,63.73
2023-05-19T15:41:58.492Z,63.59
2023-05-19T15:44:28.863Z,63.64
2023-05-19T15:46:56.801Z,63.70
2023-05-19T15:49:25.289Z,63.61
2023-05-19T15:51:52.948Z,63.63
2023-05-19T15:54:20.612Z,63.86
2023-05-19T15:56:48.548Z,63.86
2023-05-19T15:59:16.177Z,63.98
2023-05-19T16:01:44.124Z,63.99
2023-05-19T16:04:12.081Z,64.00
2023-05-19T16:06:39.786Z,63.96
2023-05-19T16:09:07.424Z,64.20
2023-05-19T16:11:35.479Z,64.53
2023-05-19T16:14:03.098Z,64.34
2023-05-19T16:16:30.915Z,64.60
2023-05-19T16:18:59.419Z,64.83
2023-05-19T16:21:27.174Z,64.91
2023-05-19T16:23:54.997Z,65.10
2023-05-19T16:26:22.795Z,64.93
2023-05-19T16:28:50.454Z,65.22
2023-05-19T16:31:18.325Z,65.25
2023-05-19T16:33:46.370Z,65.40
2023-05-19T16:36:14.038Z,65.78
2023-05-19T16:38:41.708Z,65.93
2023-05-19T16:41:12.494Z,65.96
2023-05-19T16:43:40.446Z,65.83
2023-05-19T16:46:09.884Z,66.17
2023-05-19T16:48:37.945Z,66.04
2023-05-19T16:51:05.713Z,66.27
2023-05-19T16:53:33.652Z,66.27
2023-05-19T16:56:02.053Z,66.32
2023-05-19T16:58:30.927Z,66.68
2023-05-19T17:00:58.846Z,67.10
2023-05-19T17:03:26.625Z,67.21
2023-05-19T17:05:54.414Z,67.42
2023-05-19T17:08:22.272Z,67.50
2023-05-19T17:10:50.111Z,67.65
2023-05-19T17:13:17.763Z,67.78
2023-05-19T17:15:45.567Z,67.88
2023-05-19T17:18:13.370Z,68.28
2023-05-19T17:20:41.666Z,68.36
2023-05-19T17:23:09.518Z,68.66
2023-05-19T17:25:37.232Z,68.63
2023-05-19T17:28:05.010Z,68.89
2023-05-19T17:30:34.633Z,68.95
2023-05-19T17:33:03.813Z,69.09
2023-05-19T17:35:31.676Z,69.22
2023-05-19T17:38:00.779Z,69.24
2023-05-19T17:40:28.596Z,69.70
2023-05-19T17:42:56.289Z,69.48
2023-05-19T17:45:24.174Z,69.48
2023-05-19T17:47:52.138Z,69.38
2023-05-19T17:50:19.907Z,69.75
2023-05-19T17:52:48.016Z,69.69
2023-05-19T17:55:15.728Z,69.89
2023-05-19T17:57:44.402Z,69.97
2023-05-19T18:00:12.972Z,70.16
2023-05-19T18:02:41.135Z,70.35
2023-05-19T18:05:10.071Z,70.45
2023-05-19T18:07:39.785Z,70.47
2023-05-19T18:10:09.146Z,70.43
2023-05-19T18:12:36.813Z,70.38
2023-05-19T18:15:05.417Z,70.51
2023-05-19T18:17:33.243Z,70.65
2023-05-19T18:20:00.974Z,70.73
2023-05-19T18:22:29.343Z,70.89
2023-05-19T18:24:57.836Z,70.87
2023-05-19T18:27:26.790Z,71.02
2023-05-19T18:29:54.938Z,71.18
2023-05-19T18:32:22.741Z,71.29
2023-05-19T18:34:50.584Z,71.38
2023-05-19T18:37:18.818Z,71.59
2023-05-19T18:39:46.897Z,71.72
2023-05-19T18:42:14.628Z,71.81
2023-05-19T18:44:46.997Z,71.76
2023-05-19T18:47:14.964Z,71.69
2023-05-19T18:49:43.016Z,71.82
2023-05-19T18:52:10.992Z,71.91
2023-05-19T18:54:44.761Z,72.27
2023-05-19T18:57:12.873Z,72.32
2023-05-19T18:59:40.824Z,72.26
2023-05-19T19:02:08.635Z,72.39
2023-05-19T19:04:37.136Z,72.61
2023-05-19T19:07:05.852Z,72.76
2023-05-19T19:09:33.628Z,72.90
2023-05-19T19:12:01.714Z,72.88
2023-05-19T19:14:29.525Z,73.08
2023-05-19T19:16:57.383Z,72.95
2023-05-19T19:19:26.393Z,73.22
2023-05-19T19:21:54.298Z,73.37
2023-05-19T19:24:21.930Z,73.37
2023-05-19T19:26:50.379Z,73.53
2023-05-19T19:29:18.296Z,73.70
2023-05-19T19:31:46.265Z,73.57
2023-05-19T19:34:14.282Z,73.70
2023-05-19T19:36:42.156Z,73.94
2023-05-19T19:39:09.889Z,74.11
2023-05-19T19:41:37.958Z,73.96
2023-05-19T19:44:05.812Z,73.98
2023-05-19T19:46:33.561Z,73.98
2023-05-19T19:49:01.592Z,73.99
2023-05-19T19:51:29.602Z,74.02
2023-05-19T19:53:58.174Z,74.15
2023-05-19T19:56:27.749Z,74.31
2023-05-19T19:58:59.059Z,74.33
2023-05-19T20:01:27.666Z,74.30
2023-05-19T20:03:57.175Z,74.26
2023-05-19T20:06:25.063Z,74.45
2023-05-19T20:08:52.861Z,74.49
2023-05-19T20:11:23.029Z,74.64
2023-05-19T20:13:51.422Z,74.62
2023-05-19T20:16:19.373Z,74.90
2023-05-19T20:18:47.244Z,74.82
2023-05-19T20:21:14.922Z,74.66
2023-05-19T20:23:42.679Z,74.71
2023-05-19T20:26:13.372Z,74.85
2023-05-19T20:28:41.863Z,75.05
2023-05-19T20:31:09.767Z,75.23
2023-05-19T20:33:37.789Z,75.15
2023-05-19T20:36:06.286Z,75.06
2023-05-19T20:38:34.006Z,75.03
2023-05-19T20:41:02.323Z,75.15
2023-05-19T20:43:31.952Z,75.02
2023-05-19T20:46:01.414Z,75.20
2023-05-19T20:48:29.748Z,75.17
2023-05-19T20:50:57.587Z,75.23
2023-05-19T20:53:25.440Z,75.40
2023-05-19T20:55:53.445Z,75.16
2023-05-19T20:58:21.332Z,75.31
2023-05-19T21:00:54.319Z,75.13
2023-05-19T21:03:23.448Z,75.21
2023-05-19T21:05:51.399Z,75.21
2023-05-19T21:08:19.318Z,75.17
2023-05-19T21:10:47.637Z,75.13
2023-05-19T21:13:15.449Z,75.11
2023-05-19T21:15:43.344Z,75.23
2023-05-19T21:18:12.044Z,75.15
2023-05-19T21:20:39.940Z,75.16
2023-05-19T21:23:07.955Z,75.31
2023-05-19T21:25:36.148Z,75.48
2023-05-19T21:28:03.896Z,75.41
2023-05-19T21:30:32.030Z,75.47
2023-05-19T21:33:00.149Z,75.29
2023-05-19T21:35:27.898Z,75.43
2023-05-19T21:37:56.061Z,75.36
2023-05-19T21:40:24.152Z,75.56
2023-05-19T21:42:51.846Z,75.59
2023-05-19T21:45:19.788Z,75.55
2023-05-19T21:47:47.718Z,75.70
2023-05-19T21:50:17.479Z,75.59
2023-05-19T21:52:45.283Z,75.52
2023-05-19T21:55:13.296Z,75.57
2023-05-19T21:57:41.019Z,75.62
2023-05-19T22:00:13.178Z,75.69
2023-05-19T22:02:42.003Z,75.58
2023-05-19T22:05:10.186Z,75.70
2023-05-19T22:07:38.154Z,75.71
2023-05-19T22:10:07.092Z,75.75
2023-05-19T22:12:34.877Z,75.59
2023-05-19T22:15:03.394Z,75.79
2023-05-19T22:17:31.845Z,75.71
2023-05-19T22:19:59.625Z,75.73
2023-05-19T22:22:27.440Z,76.03
2023-05-19T22:24:55.375Z,75.96
2023-05-19T22:27:23.045Z,76.11
2023-05-19T22:29:50.861Z,76.05
2023-05-19T22:32:19.588Z,76.07
2023-05-19T22:34:47.387Z,76.11
2023-05-19T22:37:15.552Z,76.21
2023-05-19T22:39:43.749Z,76.17
2023-05-19T22:42:11.682Z,76.09
2023-05-19T22:44:39.585Z,76.12
2023-05-19T22:47:13.277Z,76.01
2023-05-19T22:49:41.667Z,76.13
2023-05-19T22:52:10.668Z,76.27
2023-05-19T22:54:38.569Z,76.39
2023-05-19T22:57:06.704Z,76.33
2023-05-19T22:59:35.669Z,76.34
2023-05-19T23:02:03.507Z,76.23
2023-05-19T23:04:32.625Z,76.25
2023-05-19T23:07:00.842Z,76.34
2023-05-19T23:09:28.949Z,76.32
2023-05-19T23:11:56.822Z,76.42
2023-05-19T23:14:26.027Z,76.37
2023-05-19T23:16:53.746Z,76.26
2023-05-19T23:19:21.879Z,76.38
2023-05-19T23:21:50.188Z,76.31
2023-05-19T23:24:17.868Z,76.54
2023-05-19T23:26:45.794Z,76.63
2023-05-19T23:29:14.769Z,76.67
2023-05-19T23:31:42.596Z,76.60
2023-05-19T23:34:10.634Z,76.42
2023-05-19T23:36:38.762Z,76.53
2023-05-19T23:39:06.392Z,76.75
2023-05-19T23:41:34.148Z,76.68
2023-05-19T23:44:02.254Z,76.90
2023-05-19T23:46:30.274Z,77.16
2023-05-19T23:48:58.348Z,76.90
2023-05-19T23:51:26.686Z,76.94
2023-05-19T23:53:54.321Z,76.86
2023-05-19T23:56:22.526Z,76.90
2023-05-19T23:58:50.479Z,77.10
